sensor_id;sensor_type;location;lat;lon;timestamp;pressure;altitude;pressure_sealevel;temperature;humidity
48606;BME280;8482;54.396;18.590;2022-10-17T00:02:05;102181.41;;;12.93;82.19
48606;BME280;8482;54.396;18.590;2022-10-17T00:04:31;102189.53;;;12.91;82.75
48606;BME280;8482;54.396;18.590;2022-10-17T00:06:57;102192.28;;;12.90;83.15
48606;BME280;8482;54.396;18.590;2022-10-17T00:09:22;102195.81;;;12.90;83.69
48606;BME280;8482;54.396;18.590;2022-10-17T00:11:48;102197.69;;;12.88;83.75
48606;BME280;8482;54.396;18.590;2022-10-17T00:14:14;102194.09;;;12.89;84.02
48606;BME280;8482;54.396;18.590;2022-10-17T00:16:40;102196.75;;;12.89;83.60
48606;BME280;8482;54.396;18.590;2022-10-17T00:19:06;102180.00;;;12.87;83.72
48606;BME280;8482;54.396;18.590;2022-10-17T00:21:32;102181.09;;;12.84;83.52
48606;BME280;8482;54.396;18.590;2022-10-17T00:24:00;102184.13;;;12.78;83.58
48606;BME280;8482;54.396;18.590;2022-10-17T00:26:26;102207.44;;;12.75;82.88
48606;BME280;8482;54.396;18.590;2022-10-17T00:28:54;102198.63;;;12.74;83.67
48606;BME280;8482;54.396;18.590;2022-10-17T00:31:22;102188.81;;;12.75;84.30
48606;BME280;8482;54.396;18.590;2022-10-17T00:33:49;102190.53;;;12.76;84.07
48606;BME280;8482;54.396;18.590;2022-10-17T00:36:21;102183.59;;;12.73;83.92
48606;BME280;8482;54.396;18.590;2022-10-17T00:38:55;102190.94;;;12.69;83.59
48606;BME280;8482;54.396;18.590;2022-10-17T00:41:27;102199.75;;;12.70;83.57
48606;BME280;8482;54.396;18.590;2022-10-17T00:46:55;102205.19;;;12.68;84.50
48606;BME280;8482;54.396;18.590;2022-10-17T00:49:25;102211.38;;;12.69;85.03
48606;BME280;8482;54.396;18.590;2022-10-17T00:51:55;102214.97;;;12.68;84.45
48606;BME280;8482;54.396;18.590;2022-10-17T00:54:29;102207.28;;;12.63;84.33
48606;BME280;8482;54.396;18.590;2022-10-17T00:56:56;102213.56;;;12.62;84.04
48606;BME280;8482;54.396;18.590;2022-10-17T00:59:23;102219.84;;;12.61;83.91
48606;BME280;8482;54.396;18.590;2022-10-17T01:02:02;102218.34;;;12.57;84.20
48606;BME280;8482;54.396;18.590;2022-10-17T01:04:28;102202.88;;;12.49;84.54
48606;BME280;8482;54.396;18.590;2022-10-17T01:06:54;102212.06;;;12.58;84.76
48606;BME280;8482;54.396;18.590;2022-10-17T01:09:20;102222.44;;;12.63;85.16
48606;BME280;8482;54.396;18.590;2022-10-17T01:31:47;102247.63;;;12.57;84.77
48606;BME280;8482;54.396;18.590;2022-10-17T01:37:06;102242.19;;;12.59;84.74
48606;BME280;8482;54.396;18.590;2022-10-17T01:39:56;102231.66;;;12.57;85.05
48606;BME280;8482;54.396;18.590;2022-10-17T01:42:31;102232.50;;;12.57;84.88
48606;BME280;8482;54.396;18.590;2022-10-17T01:45:28;102232.88;;;12.51;84.18
48606;BME280;8482;54.396;18.590;2022-10-17T01:48:02;102235.06;;;12.45;83.28
48606;BME280;8482;54.396;18.590;2022-10-17T01:50:44;102249.63;;;12.39;83.03
48606;BME280;8482;54.396;18.590;2022-10-17T01:53:27;102243.84;;;12.32;83.07
48606;BME280;8482;54.396;18.590;2022-10-17T01:55:59;102247.56;;;12.30;82.69
48606;BME280;8482;54.396;18.590;2022-10-17T01:58:42;102246.72;;;12.29;83.78
48606;BME280;8482;54.396;18.590;2022-10-17T02:01:11;102255.63;;;12.28;83.56
48606;BME280;8482;54.396;18.590;2022-10-17T02:03:41;102269.72;;;12.30;83.18
48606;BME280;8482;54.396;18.590;2022-10-17T02:06:08;102277.88;;;12.27;83.25
48606;BME280;8482;54.396;18.590;2022-10-17T02:08:49;102273.50;;;12.26;83.75
48606;BME280;8482;54.396;18.590;2022-10-17T02:11:25;102272.44;;;12.29;83.83
48606;BME280;8482;54.396;18.590;2022-10-17T02:25:56;102270.19;;;12.37;84.79
48606;BME280;8482;54.396;18.590;2022-10-17T02:31:37;102283.00;;;12.30;83.51
48606;BME280;8482;54.396;18.590;2022-10-17T02:34:23;102276.16;;;12.26;83.65
48606;BME280;8482;54.396;18.590;2022-10-17T02:36:59;102275.50;;;12.22;84.35
48606;BME280;8482;54.396;18.590;2022-10-17T02:39:28;102277.22;;;12.23;84.62
48606;BME280;8482;54.396;18.590;2022-10-17T02:42:01;102290.13;;;12.30;84.57
48606;BME280;8482;54.396;18.590;2022-10-17T02:44:31;102289.19;;;12.31;85.23
48606;BME280;8482;54.396;18.590;2022-10-17T02:47:15;102294.22;;;12.35;85.64
48606;BME280;8482;54.396;18.590;2022-10-17T02:49:50;102300.28;;;12.37;85.72
48606;BME280;8482;54.396;18.590;2022-10-17T02:52:55;102303.13;;;12.34;85.27
48606;BME280;8482;54.396;18.590;2022-10-17T02:55:45;102314.66;;;12.35;84.74
48606;BME280;8482;54.396;18.590;2022-10-17T02:58:26;102308.84;;;12.28;84.26
48606;BME280;8482;54.396;18.590;2022-10-17T03:00:53;102316.72;;;12.30;84.46
48606;BME280;8482;54.396;18.590;2022-10-17T03:03:22;102315.69;;;12.32;84.68
48606;BME280;8482;54.396;18.590;2022-10-17T03:05:48;102320.25;;;12.30;84.49
48606;BME280;8482;54.396;18.590;2022-10-17T03:08:14;102315.19;;;12.25;84.15
48606;BME280;8482;54.396;18.590;2022-10-17T03:10:40;102308.38;;;12.21;83.74
48606;BME280;8482;54.396;18.590;2022-10-17T03:13:05;102310.94;;;12.23;84.33
48606;BME280;8482;54.396;18.590;2022-10-17T03:15:31;102313.47;;;12.24;84.67
48606;BME280;8482;54.396;18.590;2022-10-17T03:17:57;102325.84;;;12.25;84.46
48606;BME280;8482;54.396;18.590;2022-10-17T03:20:23;102332.09;;;12.24;84.53
48606;BME280;8482;54.396;18.590;2022-10-17T03:22:49;102328.72;;;12.22;84.09
48606;BME280;8482;54.396;18.590;2022-10-17T03:25:14;102329.66;;;12.21;84.04
48606;BME280;8482;54.396;18.590;2022-10-17T03:27:40;102324.63;;;12.17;83.84
48606;BME280;8482;54.396;18.590;2022-10-17T03:30:07;102322.03;;;12.15;84.17
48606;BME280;8482;54.396;18.590;2022-10-17T03:32:33;102319.38;;;12.15;84.37
48606;BME280;8482;54.396;18.590;2022-10-17T03:34:59;102317.75;;;12.13;84.30
48606;BME280;8482;54.396;18.590;2022-10-17T03:37:25;102328.41;;;12.13;84.30
48606;BME280;8482;54.396;18.590;2022-10-17T03:39:51;102316.16;;;12.10;83.94
48606;BME280;8482;54.396;18.590;2022-10-17T03:42:17;102324.88;;;12.12;84.26
48606;BME280;8482;54.396;18.590;2022-10-17T03:44:43;102330.00;;;12.15;84.88
48606;BME280;8482;54.396;18.590;2022-10-17T03:47:09;102331.72;;;12.16;84.83
48606;BME280;8482;54.396;18.590;2022-10-17T03:49:34;102337.91;;;12.17;84.95
48606;BME280;8482;54.396;18.590;2022-10-17T03:52:00;102325.47;;;12.17;84.98
48606;BME280;8482;54.396;18.590;2022-10-17T03:54:26;102319.28;;;12.17;84.90
48606;BME280;8482;54.396;18.590;2022-10-17T03:56:52;102322.81;;;12.17;84.51
48606;BME280;8482;54.396;18.590;2022-10-17T03:59:18;102323.75;;;12.16;84.67
48606;BME280;8482;54.396;18.590;2022-10-17T04:01:44;102329.06;;;12.16;84.77
48606;BME280;8482;54.396;18.590;2022-10-17T04:04:10;102331.72;;;12.16;85.35
48606;BME280;8482;54.396;18.590;2022-10-17T04:06:37;102345.63;;;12.21;85.20
48606;BME280;8482;54.396;18.590;2022-10-17T04:09:04;102346.47;;;12.22;85.32
48606;BME280;8482;54.396;18.590;2022-10-17T04:11:31;102366.50;;;12.27;85.73
48606;BME280;8482;54.396;18.590;2022-10-17T04:13:57;102363.00;;;12.27;86.01
48606;BME280;8482;54.396;18.590;2022-10-17T04:16:27;102367.19;;;12.31;85.80
48606;BME280;8482;54.396;18.590;2022-10-17T04:18:55;102359.19;;;12.31;85.60
48606;BME280;8482;54.396;18.590;2022-10-17T04:21:23;102354.94;;;12.29;85.34
48606;BME280;8482;54.396;18.590;2022-10-17T04:23:59;102349.44;;;12.32;85.19
48606;BME280;8482;54.396;18.590;2022-10-17T04:26:26;102352.25;;;12.29;84.70
48606;BME280;8482;54.396;18.590;2022-10-17T04:28:52;102348.28;;;12.21;84.22
48606;BME280;8482;54.396;18.590;2022-10-17T04:31:18;102352.66;;;12.22;84.22
48606;BME280;8482;54.396;18.590;2022-10-17T04:33:47;102351.13;;;12.18;84.70
48606;BME280;8482;54.396;18.590;2022-10-17T04:36:17;102356.44;;;12.18;84.31
48606;BME280;8482;54.396;18.590;2022-10-17T04:38:44;102357.22;;;12.20;84.87
48606;BME280;8482;54.396;18.590;2022-10-17T04:41:13;102360.63;;;12.22;85.11
48606;BME280;8482;54.396;18.590;2022-10-17T04:43:40;102352.66;;;12.22;85.61
48606;BME280;8482;54.396;18.590;2022-10-17T04:46:10;102360.44;;;12.25;85.28
48606;BME280;8482;54.396;18.590;2022-10-17T04:48:37;102370.13;;;12.26;85.22
48606;BME280;8482;54.396;18.590;2022-10-17T04:51:10;102368.50;;;12.24;85.03
48606;BME280;8482;54.396;18.590;2022-10-17T04:53:38;102370.41;;;12.22;85.18
48606;BME280;8482;54.396;18.590;2022-10-17T04:56:15;102379.25;;;12.22;84.70
48606;BME280;8482;54.396;18.590;2022-10-17T04:58:42;102374.97;;;12.20;84.76
48606;BME280;8482;54.396;18.590;2022-10-17T05:01:12;102378.78;;;12.16;84.55
48606;BME280;8482;54.396;18.590;2022-10-17T05:03:39;102392.16;;;12.14;84.43
48606;BME280;8482;54.396;18.590;2022-10-17T05:06:15;102386.06;;;12.12;84.67
48606;BME280;8482;54.396;18.590;2022-10-17T05:08:43;102384.34;;;12.11;84.77
48606;BME280;8482;54.396;18.590;2022-10-17T05:11:19;102381.78;;;12.09;84.76
48606;BME280;8482;54.396;18.590;2022-10-17T05:13:58;102377.50;;;12.07;84.60
48606;BME280;8482;54.396;18.590;2022-10-17T05:16:26;102381.88;;;12.08;85.30
48606;BME280;8482;54.396;18.590;2022-10-17T05:18:56;102373.81;;;12.09;86.01
48606;BME280;8482;54.396;18.590;2022-10-17T05:21:25;102379.13;;;12.09;86.31
48606;BME280;8482;54.396;18.590;2022-10-17T05:23:51;102379.63;;;12.16;85.88
48606;BME280;8482;54.396;18.590;2022-10-17T05:26:18;102379.44;;;12.19;86.38
48606;BME280;8482;54.396;18.590;2022-10-17T05:28:44;102390.75;;;12.23;86.04
48606;BME280;8482;54.396;18.590;2022-10-17T05:31:10;102394.19;;;12.25;86.19
48606;BME280;8482;54.396;18.590;2022-10-17T05:33:37;102397.69;;;12.25;86.20
48606;BME280;8482;54.396;18.590;2022-10-17T05:36:04;102403.00;;;12.25;86.09
48606;BME280;8482;54.396;18.590;2022-10-17T05:38:30;102402.81;;;12.29;86.12
48606;BME280;8482;54.396;18.590;2022-10-17T05:41:02;102399.22;;;12.30;86.22
48606;BME280;8482;54.396;18.590;2022-10-17T05:43:29;102402.81;;;12.29;86.46
48606;BME280;8482;54.396;18.590;2022-10-17T05:45:55;102396.72;;;12.26;86.15
48606;BME280;8482;54.396;18.590;2022-10-17T05:48:23;102402.75;;;12.30;86.52
48606;BME280;8482;54.396;18.590;2022-10-17T05:50:49;102406.25;;;12.31;86.74
48606;BME280;8482;54.396;18.590;2022-10-17T05:53:21;102405.31;;;12.32;86.68
48606;BME280;8482;54.396;18.590;2022-10-17T05:55:56;102406.16;;;12.32;86.31
48606;BME280;8482;54.396;18.590;2022-10-17T05:58:21;102409.56;;;12.34;86.47
48606;BME280;8482;54.396;18.590;2022-10-17T06:00:47;102407.78;;;12.35;86.43
48606;BME280;8482;54.396;18.590;2022-10-17T06:03:13;102404.91;;;12.38;86.07
48606;BME280;8482;54.396;18.590;2022-10-17T06:05:39;102413.66;;;12.40;86.39
48606;BME280;8482;54.396;18.590;2022-10-17T06:08:05;102391.44;;;12.41;86.07
48606;BME280;8482;54.396;18.590;2022-10-17T06:10:30;102404.66;;;12.43;85.62
48606;BME280;8482;54.396;18.590;2022-10-17T06:12:56;102396.41;;;12.47;85.83
48606;BME280;8482;54.396;18.590;2022-10-17T06:15:22;102406.88;;;12.50;85.55
48606;BME280;8482;54.396;18.590;2022-10-17T06:17:48;102403.16;;;12.53;85.60
48606;BME280;8482;54.396;18.590;2022-10-17T06:20:14;102406.59;;;12.55;85.41
48606;BME280;8482;54.396;18.590;2022-10-17T06:22:40;102413.41;;;12.59;85.47
48606;BME280;8482;54.396;18.590;2022-10-17T06:25:06;102418.00;;;12.57;85.43
48606;BME280;8482;54.396;18.590;2022-10-17T06:27:32;102428.16;;;12.65;85.12
48606;BME280;8482;54.396;18.590;2022-10-17T06:29:57;102423.78;;;12.64;85.34
48606;BME280;8482;54.396;18.590;2022-10-17T06:32:23;102435.88;;;12.69;85.35
48606;BME280;8482;54.396;18.590;2022-10-17T06:34:49;102444.59;;;12.71;85.34
48606;BME280;8482;54.396;18.590;2022-10-17T06:37:15;102432.16;;;12.72;85.38
48606;BME280;8482;54.396;18.590;2022-10-17T06:39:41;102445.97;;;12.79;85.38
48606;BME280;8482;54.396;18.590;2022-10-17T06:42:07;102444.91;;;12.81;85.73
48606;BME280;8482;54.396;18.590;2022-10-17T06:44:33;102457.09;;;12.85;85.60
48606;BME280;8482;54.396;18.590;2022-10-17T06:46:59;102450.81;;;12.86;85.94
48606;BME280;8482;54.396;18.590;2022-10-17T06:49:27;102456.69;;;12.92;86.24
48606;BME280;8482;54.396;18.590;2022-10-17T06:51:53;102459.94;;;12.97;86.42
48606;BME280;8482;54.396;18.590;2022-10-17T06:54:19;102465.16;;;12.98;86.02
48606;BME280;8482;54.396;18.590;2022-10-17T06:56:45;102472.69;;;13.06;86.47
48606;BME280;8482;54.396;18.590;2022-10-17T06:59:10;102465.66;;;13.05;86.75
48606;BME280;8482;54.396;18.590;2022-10-17T07:01:36;102467.84;;;13.13;86.90
48606;BME280;8482;54.396;18.590;2022-10-17T07:04:02;102465.09;;;13.14;86.50
48606;BME280;8482;54.396;18.590;2022-10-17T07:06:28;102463.91;;;13.18;86.61
48606;BME280;8482;54.396;18.590;2022-10-17T07:08:54;102454.03;;;13.21;86.50
48606;BME280;8482;54.396;18.590;2022-10-17T07:11:22;102466.03;;;13.28;86.68
48606;BME280;8482;54.396;18.590;2022-10-17T07:13:48;102466.69;;;13.31;86.88
48606;BME280;8482;54.396;18.590;2022-10-17T07:16:15;102461.16;;;13.34;86.90
48606;BME280;8482;54.396;18.590;2022-10-17T07:18:41;102452.13;;;13.37;86.44
48606;BME280;8482;54.396;18.590;2022-10-17T07:21:08;102460.88;;;13.39;85.50
48606;BME280;8482;54.396;18.590;2022-10-17T07:23:38;102465.06;;;13.43;85.24
48606;BME280;8482;54.396;18.590;2022-10-17T07:26:08;102470.31;;;13.45;84.69
48606;BME280;8482;54.396;18.590;2022-10-17T07:28:41;102473.53;;;13.50;83.96
48606;BME280;8482;54.396;18.590;2022-10-17T07:31:14;102467.16;;;13.53;83.90
48606;BME280;8482;54.396;18.590;2022-10-17T07:33:42;102466.88;;;13.57;83.51
48606;BME280;8482;54.396;18.590;2022-10-17T07:36:09;102470.19;;;13.61;83.75
48606;BME280;8482;54.396;18.590;2022-10-17T07:38:35;102456.84;;;13.61;83.42
48606;BME280;8482;54.396;18.590;2022-10-17T07:41:05;102471.28;;;13.71;83.51
48606;BME280;8482;54.396;18.590;2022-10-17T07:43:31;102473.69;;;13.76;83.68
48606;BME280;8482;54.396;18.590;2022-10-17T07:45:57;102472.44;;;13.82;83.88
48606;BME280;8482;54.396;18.590;2022-10-17T07:48:24;102482.78;;;13.86;84.29
48606;BME280;8482;54.396;18.590;2022-10-17T07:50:50;102487.81;;;13.91;84.38
48606;BME280;8482;54.396;18.590;2022-10-17T07:53:17;102476.84;;;13.95;84.97
48606;BME280;8482;54.396;18.590;2022-10-17T07:55:43;102478.25;;;14.01;84.59
48606;BME280;8482;54.396;18.590;2022-10-17T07:58:11;102476.13;;;14.06;84.89
48606;BME280;8482;54.396;18.590;2022-10-17T08:00:37;102481.16;;;14.11;84.76
48606;BME280;8482;54.396;18.590;2022-10-17T08:03:04;102493.25;;;14.17;85.00
48606;BME280;8482;54.396;18.590;2022-10-17T08:05:31;102493.03;;;14.20;84.93
48606;BME280;8482;54.396;18.590;2022-10-17T08:07:57;102487.19;;;14.28;84.96
48606;BME280;8482;54.396;18.590;2022-10-17T08:10:24;102479.63;;;14.34;84.90
48606;BME280;8482;54.396;18.590;2022-10-17T08:12:53;102479.19;;;14.40;84.40
48606;BME280;8482;54.396;18.590;2022-10-17T08:15:19;102491.28;;;14.46;84.30
48606;BME280;8482;54.396;18.590;2022-10-17T08:17:45;102482.75;;;14.54;84.19
48606;BME280;8482;54.396;18.590;2022-10-17T08:20:11;102485.00;;;14.60;83.92
48606;BME280;8482;54.396;18.590;2022-10-17T08:22:37;102476.75;;;14.63;83.64
48606;BME280;8482;54.396;18.590;2022-10-17T08:25:04;102477.97;;;14.72;83.67
48606;BME280;8482;54.396;18.590;2022-10-17T08:27:32;102479.28;;;14.79;83.25
48606;BME280;8482;54.396;18.590;2022-10-17T08:29:59;102465.41;;;14.87;83.00
48606;BME280;8482;54.396;18.590;2022-10-17T08:32:27;102470.19;;;14.95;82.56
48606;BME280;8482;54.396;18.590;2022-10-17T08:34:55;102458.22;;;15.00;81.82
48606;BME280;8482;54.396;18.590;2022-10-17T08:37:24;102460.34;;;15.08;81.92
48606;BME280;8482;54.396;18.590;2022-10-17T08:39:49;102460.97;;;15.12;81.54
48606;BME280;8482;54.396;18.590;2022-10-17T08:45:43;102458.41;;;15.23;80.40
48606;BME280;8482;54.396;18.590;2022-10-17T08:48:17;102453.78;;;15.25;79.89
48606;BME280;8482;54.396;18.590;2022-10-17T08:51:06;102451.41;;;15.33;79.41
48606;BME280;8482;54.396;18.590;2022-10-17T08:56:56;102451.94;;;15.39;78.50
48606;BME280;8482;54.396;18.590;2022-10-17T08:59:29;102448.94;;;15.43;78.16
48606;BME280;8482;54.396;18.590;2022-10-17T09:08:08;102450.72;;;15.56;76.84
48606;BME280;8482;54.396;18.590;2022-10-17T09:25:17;102437.66;;;15.88;75.25
48606;BME280;8482;54.396;18.590;2022-10-17T09:33:39;102443.03;;;16.00;74.61
48606;BME280;8482;54.396;18.590;2022-10-17T09:36:22;102434.66;;;16.04;74.57
48606;BME280;8482;54.396;18.590;2022-10-17T09:38:57;102435.28;;;16.08;74.45
48606;BME280;8482;54.396;18.590;2022-10-17T09:41:47;102437.84;;;16.09;74.36
48606;BME280;8482;54.396;18.590;2022-10-17T09:44:33;102425.97;;;16.14;74.25
48606;BME280;8482;54.396;18.590;2022-10-17T09:48:07;102429.03;;;16.20;74.45
48606;BME280;8482;54.396;18.590;2022-10-17T09:50:00;102428.75;;;16.23;74.46
48606;BME280;8482;54.396;18.590;2022-10-17T09:52:37;102431.09;;;16.28;74.35
48606;BME280;8482;54.396;18.590;2022-10-17T09:58:02;102446.09;;;16.42;73.96
48606;BME280;8482;54.396;18.590;2022-10-17T10:00:39;102436.00;;;16.46;73.66
48606;BME280;8482;54.396;18.590;2022-10-17T10:03:19;102441.97;;;16.49;73.43
48606;BME280;8482;54.396;18.590;2022-10-17T10:08:55;102440.31;;;16.60;73.05
48606;BME280;8482;54.396;18.590;2022-10-17T10:11:50;102438.09;;;16.65;73.31
48606;BME280;8482;54.396;18.590;2022-10-17T10:14:33;102439.56;;;16.69;73.02
48606;BME280;8482;54.396;18.590;2022-10-17T10:17:36;102435.94;;;16.70;72.77
48606;BME280;8482;54.396;18.590;2022-10-17T10:23:16;102426.41;;;16.77;72.40
48606;BME280;8482;54.396;18.590;2022-10-17T10:26:04;102417.41;;;16.90;72.42
48606;BME280;8482;54.396;18.590;2022-10-17T10:28:35;102418.03;;;16.93;72.37
48606;BME280;8482;54.396;18.590;2022-10-17T10:31:06;102420.84;;;17.03;72.10
48606;BME280;8482;54.396;18.590;2022-10-17T10:33:36;102423.16;;;17.08;72.12
48606;BME280;8482;54.396;18.590;2022-10-17T10:36:05;102418.41;;;17.11;72.00
48606;BME280;8482;54.396;18.590;2022-10-17T10:38:34;102414.75;;;17.12;71.83
48606;BME280;8482;54.396;18.590;2022-10-17T10:41:07;102421.56;;;17.16;71.78
48606;BME280;8482;54.396;18.590;2022-10-17T10:43:46;102418.63;;;17.20;71.71
48606;BME280;8482;54.396;18.590;2022-10-17T10:46:18;102416.56;;;17.23;71.79
48606;BME280;8482;54.396;18.590;2022-10-17T10:48:57;102417.16;;;17.27;71.90
48606;BME280;8482;54.396;18.590;2022-10-17T10:51:53;102402.53;;;17.31;71.78
48606;BME280;8482;54.396;18.590;2022-10-17T10:54:36;102403.13;;;17.35;71.98
48606;BME280;8482;54.396;18.590;2022-10-17T10:57:11;102404.59;;;17.39;72.05
48606;BME280;8482;54.396;18.590;2022-10-17T11:00:04;102397.84;;;17.44;72.01
48606;BME280;8482;54.396;18.590;2022-10-17T11:02:45;102395.91;;;17.46;71.64
48606;BME280;8482;54.396;18.590;2022-10-17T11:05:43;102397.09;;;17.54;71.53
48606;BME280;8482;54.396;18.590;2022-10-17T11:08:37;102397.31;;;17.62;71.30
48606;BME280;8482;54.396;18.590;2022-10-17T11:11:30;102405.56;;;17.70;71.04
48606;BME280;8482;54.396;18.590;2022-10-17T11:14:02;102398.09;;;17.74;70.76
48606;BME280;8482;54.396;18.590;2022-10-17T11:16:41;102394.94;;;17.80;70.70
48606;BME280;8482;54.396;18.590;2022-10-17T11:19:30;102389.16;;;17.85;70.83
48606;BME280;8482;54.396;18.590;2022-10-17T11:22:08;102383.53;;;17.88;70.96
48606;BME280;8482;54.396;18.590;2022-10-17T11:24:53;102367.31;;;17.89;70.72
48606;BME280;8482;54.396;18.590;2022-10-17T11:27:23;102360.13;;;17.90;70.68
48606;BME280;8482;54.396;18.590;2022-10-17T11:29:50;102343.28;;;17.88;70.71
48606;BME280;8482;54.396;18.590;2022-10-17T11:32:43;102344.84;;;17.90;70.60
48606;BME280;8482;54.396;18.590;2022-10-17T11:35:28;102347.28;;;17.93;70.61
48606;BME280;8482;54.396;18.590;2022-10-17T11:38:24;102352.84;;;18.02;70.80
48606;BME280;8482;54.396;18.590;2022-10-17T11:40:58;102350.06;;;18.03;70.68
48606;BME280;8482;54.396;18.590;2022-10-17T11:43:35;102351.94;;;18.13;70.74
48606;BME280;8482;54.396;18.590;2022-10-17T11:46:20;102341.78;;;18.16;70.60
48606;BME280;8482;54.396;18.590;2022-10-17T11:49:21;102345.91;;;18.20;70.46
48606;BME280;8482;54.396;18.590;2022-10-17T11:54:44;102328.56;;;18.25;70.35
48606;BME280;8482;54.396;18.590;2022-10-17T11:57:38;102326.44;;;18.28;70.37
48606;BME280;8482;54.396;18.590;2022-10-17T12:06:45;102324.31;;;18.53;70.39
48606;BME280;8482;54.396;18.590;2022-10-17T12:11:56;102312.88;;;18.61;69.78
48606;BME280;8482;54.396;18.590;2022-10-17T12:14:42;102321.25;;;18.67;70.03
48606;BME280;8482;54.396;18.590;2022-10-17T12:17:32;102320.25;;;18.68;69.97
48606;BME280;8482;54.396;18.590;2022-10-17T12:22:51;102311.06;;;18.71;69.44
48606;BME280;8482;54.396;18.590;2022-10-17T12:25:27;102307.38;;;18.72;69.23
48606;BME280;8482;54.396;18.590;2022-10-17T12:28:25;102298.50;;;18.72;68.92
48606;BME280;8482;54.396;18.590;2022-10-17T12:31:22;102302.56;;;18.76;68.90
48606;BME280;8482;54.396;18.590;2022-10-17T12:34:04;102299.78;;;18.77;68.94
48606;BME280;8482;54.396;18.590;2022-10-17T12:46:57;102260.03;;;18.81;69.65
48606;BME280;8482;54.396;18.590;2022-10-17T12:49:49;102251.38;;;18.87;69.51
48606;BME280;8482;54.396;18.590;2022-10-17T12:57:46;102238.44;;;19.02;69.54
48606;BME280;8482;54.396;18.590;2022-10-17T13:00:41;102238.16;;;19.05;69.07
48606;BME280;8482;54.396;18.590;2022-10-17T13:03:32;102229.06;;;19.06;68.97
48606;BME280;8482;54.396;18.590;2022-10-17T13:06:05;102212.94;;;19.06;68.94
48606;BME280;8482;54.396;18.590;2022-10-17T13:08:38;102219.72;;;19.10;68.79
48606;BME280;8482;54.396;18.590;2022-10-17T13:11:07;102226.66;;;19.13;69.12
48606;BME280;8482;54.396;18.590;2022-10-17T13:13:56;102226.25;;;19.18;68.81
48606;BME280;8482;54.396;18.590;2022-10-17T13:16:49;102224.56;;;19.17;68.75
48606;BME280;8482;54.396;18.590;2022-10-17T13:19:23;102224.25;;;19.20;68.73
48606;BME280;8482;54.396;18.590;2022-10-17T13:21:58;102221.56;;;19.20;68.94
48606;BME280;8482;54.396;18.590;2022-10-17T13:24:36;102217.03;;;19.30;68.58
48606;BME280;8482;54.396;18.590;2022-10-17T13:27:19;102211.50;;;19.32;68.83
48606;BME280;8482;54.396;18.590;2022-10-17T13:29:45;102216.19;;;19.39;69.04
48606;BME280;8482;54.396;18.590;2022-10-17T13:32:11;102213.47;;;19.39;68.69
48606;BME280;8482;54.396;18.590;2022-10-17T13:34:37;102214.91;;;19.43;68.51
48606;BME280;8482;54.396;18.590;2022-10-17T13:37:06;102205.53;;;19.48;68.21
48606;BME280;8482;54.396;18.590;2022-10-17T13:39:46;102205.25;;;19.51;68.13
48606;BME280;8482;54.396;18.590;2022-10-17T13:42:29;102189.97;;;19.51;68.01
48606;BME280;8482;54.396;18.590;2022-10-17T13:44:57;102187.81;;;19.55;68.28
48606;BME280;8482;54.396;18.590;2022-10-17T13:47:28;102177.19;;;19.53;67.97
48606;BME280;8482;54.396;18.590;2022-10-17T13:49:56;102167.69;;;19.59;68.18
48606;BME280;8482;54.396;18.590;2022-10-17T13:52:27;102166.41;;;19.63;68.25
48606;BME280;8482;54.396;18.590;2022-10-17T13:54:54;102173.47;;;19.64;68.45
48606;BME280;8482;54.396;18.590;2022-10-17T13:57:28;102162.97;;;19.71;67.90
48606;BME280;8482;54.396;18.590;2022-10-17T14:00:10;102158.13;;;19.74;68.10
48606;BME280;8482;54.396;18.590;2022-10-17T14:02:40;102139.59;;;19.71;67.99
48606;BME280;8482;54.396;18.590;2022-10-17T14:05:11;102153.16;;;19.80;68.27
48606;BME280;8482;54.396;18.590;2022-10-17T14:07:55;102129.94;;;19.79;68.26
48606;BME280;8482;54.396;18.590;2022-10-17T14:10:31;102145.78;;;19.82;68.37
48606;BME280;8482;54.396;18.590;2022-10-17T14:12:59;102144.47;;;19.86;68.46
48606;BME280;8482;54.396;18.590;2022-10-17T14:15:33;102140.69;;;19.88;68.29
48606;BME280;8482;54.396;18.590;2022-10-17T14:18:03;102138.72;;;19.90;68.15
48606;BME280;8482;54.396;18.590;2022-10-17T14:20:31;102141.25;;;19.92;68.06
48606;BME280;8482;54.396;18.590;2022-10-17T14:22:59;102132.28;;;19.91;68.15
48606;BME280;8482;54.396;18.590;2022-10-17T14:25:39;102125.53;;;19.87;68.19
48606;BME280;8482;54.396;18.590;2022-10-17T14:28:14;102132.28;;;19.91;68.28
48606;BME280;8482;54.396;18.590;2022-10-17T14:30:52;102121.97;;;19.87;68.60
48606;BME280;8482;54.396;18.590;2022-10-17T14:33:29;102118.28;;;19.88;68.76
48606;BME280;8482;54.396;18.590;2022-10-17T14:35:59;102120.00;;;19.89;68.80
48606;BME280;8482;54.396;18.590;2022-10-17T14:38:30;102125.53;;;19.87;68.85
48606;BME280;8482;54.396;18.590;2022-10-17T14:41:01;102122.09;;;19.85;69.00
48606;BME280;8482;54.396;18.590;2022-10-17T14:43:30;102119.56;;;19.84;69.36
48606;BME280;8482;54.396;18.590;2022-10-17T14:46:01;102117.88;;;19.83;69.53
48606;BME280;8482;54.396;18.590;2022-10-17T14:48:28;102114.63;;;19.79;69.66
48606;BME280;8482;54.396;18.590;2022-10-17T14:51:23;102116.63;;;19.77;69.81
48606;BME280;8482;54.396;18.590;2022-10-17T14:54:24;102111.00;;;19.70;70.04
48606;BME280;8482;54.396;18.590;2022-10-17T14:56:54;102118.91;;;19.72;70.72
48606;BME280;8482;54.396;18.590;2022-10-17T14:59:20;102112.81;;;19.70;70.51
48606;BME280;8482;54.396;18.590;2022-10-17T15:01:51;102114.97;;;19.66;70.68
48606;BME280;8482;54.396;18.590;2022-10-17T15:04:17;102113.28;;;19.65;71.15
48606;BME280;8482;54.396;18.590;2022-10-17T15:06:43;102099.41;;;19.60;71.24
48606;BME280;8482;54.396;18.590;2022-10-17T15:09:10;102097.84;;;19.57;71.31
48606;BME280;8482;54.396;18.590;2022-10-17T15:11:37;102097.03;;;19.57;71.66